Time;durP1;ratioP1;P1;durP2;ratioP2;P2;SDS_P1;SDS_P2;PMS_P1;PMS_P2;Temp;Humidity;BMP_temperature;BMP_pressure;BME280_temperature;BME280_humidity;BME280_pressure;Samples;Min_cycle;Max_cycle;Signal;HPM_P1;HPM_P2
2022/03/31 00:01:33;;;;;;;2.35;1.10;;;6.20;74.90;;;;;;4992018;28;20051;-84
2022/03/31 00:04:02;;;;;;;2.72;1.20;;;6.20;75.00;;;;;;4975506;28;20057;-85
2022/03/31 00:06:29;;;;;;;3.47;1.70;;;6.20;75.10;;;;;;5001510;28;20050;-85
2022/03/31 00:08:58;;;;;;;3.67;1.67;;;6.10;75.40;;;;;;5008505;28;20112;-84
2022/03/31 00:11:26;;;;;;;4.25;1.95;;;6.10;75.60;;;;;;4998587;28;20042;-84
2022/03/31 00:13:53;;;;;;;4.10;1.83;;;6.00;75.70;;;;;;4990647;28;20046;-84
2022/03/31 00:16:23;;;;;;;4.00;1.70;;;6.00;75.90;;;;;;4987051;28;20046;-84
2022/03/31 00:18:51;;;;;;;3.83;2.08;;;6.00;75.90;;;;;;4979170;28;20125;-84
2022/03/31 00:21:20;;;;;;;3.72;1.90;;;5.90;76.10;;;;;;4994185;28;20069;-84
2022/03/31 00:23:47;;;;;;;3.45;1.75;;;6.00;76.30;;;;;;5026696;28;20324;-84
2022/03/31 00:26:16;;;;;;;3.92;1.77;;;6.00;76.30;;;;;;4999289;28;20760;-84
2022/03/31 00:28:44;;;;;;;3.28;1.63;;;6.00;76.30;;;;;;4993233;28;20046;-84
2022/03/31 00:31:11;;;;;;;4.38;1.63;;;5.90;76.30;;;;;;4996989;28;20410;-84
2022/03/31 00:33:39;;;;;;;3.65;1.88;;;5.80;76.50;;;;;;4980627;28;20050;-84
2022/03/31 00:36:06;;;;;;;3.53;2.05;;;5.80;76.60;;;;;;5015794;28;20038;-83
2022/03/31 00:38:35;;;;;;;4.57;2.00;;;5.80;76.80;;;;;;4991552;28;20129;-85
2022/03/31 00:41:04;;;;;;;4.40;1.58;;;5.80;76.90;;;;;;4991058;28;20069;-85
2022/03/31 00:43:31;;;;;;;6.00;2.70;;;5.80;77.60;;;;;;5017515;28;20082;-84
2022/03/31 00:46:01;;;;;;;4.13;2.35;;;5.80;77.30;;;;;;5003154;28;20077;-85
2022/03/31 00:48:28;;;;;;;2.85;1.98;;;5.70;77.40;;;;;;5005080;28;20053;-84
2022/03/31 00:50:56;;;;;;;3.55;1.73;;;5.70;77.40;;;;;;5009827;28;20410;-84
2022/03/31 00:53:25;;;;;;;3.33;2.05;;;5.70;77.60;;;;;;5009610;28;20145;-84
2022/03/31 00:56:01;;;;;;;5.53;2.88;;;5.70;77.50;;;;;;4981177;28;20085;-85
2022/03/31 00:58:31;;;;;;;3.83;1.95;;;5.70;77.70;;;;;;5005609;28;20050;-84
2022/03/31 01:00:58;;;;;;;4.05;2.05;;;5.70;77.80;;;;;;5001693;28;20100;-84
2022/03/31 01:03:26;;;;;;;4.50;2.60;;;5.70;77.90;;;;;;5003448;28;20050;-85
2022/03/31 01:06:01;;;;;;;3.97;1.83;;;5.60;77.90;;;;;;4998154;28;20145;-84
2022/03/31 01:08:31;;;;;;;3.45;2.08;;;5.60;78.00;;;;;;4991666;28;20089;-85
2022/03/31 01:10:58;;;;;;;4.03;2.15;;;5.70;78.10;;;;;;4999463;28;20108;-85
2022/03/31 01:13:25;;;;;;;4.10;2.28;;;5.60;78.30;;;;;;4994758;28;20152;-84
2022/03/31 01:15:54;;;;;;;4.45;2.47;;;5.60;78.40;;;;;;5002094;28;20050;-85
2022/03/31 01:18:21;;;;;;;4.65;2.53;;;5.50;78.50;;;;;;4999374;28;20142;-84
2022/03/31 01:20:49;;;;;;;3.97;1.92;;;5.50;78.40;;;;;;5005136;28;20054;-85
2022/03/31 01:23:20;;;;;;;4.00;2.40;;;5.60;78.50;;;;;;4981208;28;20053;-84
2022/03/31 01:25:50;;;;;;;4.00;2.22;;;5.60;78.50;;;;;;5010436;28;20053;-85
2022/03/31 01:28:20;;;;;;;4.32;1.85;;;5.60;78.50;;;;;;4992246;28;20081;-85
2022/03/31 01:30:47;;;;;;;5.38;2.33;;;5.60;78.60;;;;;;5004161;28;20819;-84
2022/03/31 01:33:17;;;;;;;3.75;2.10;;;5.60;78.70;;;;;;5003146;28;20474;-84
2022/03/31 01:35:45;;;;;;;3.50;2.05;;;5.50;78.70;;;;;;5007174;28;20045;-84
2022/03/31 01:38:18;;;;;;;4.07;1.90;;;5.50;79.40;;;;;;5003339;28;20057;-85
2022/03/31 01:40:48;;;;;;;5.30;2.15;;;5.50;78.90;;;;;;4997176;28;20050;-85
2022/03/31 01:43:15;;;;;;;3.03;1.80;;;5.40;79.00;;;;;;5020809;28;20084;-85
2022/03/31 01:45:45;;;;;;;4.10;1.80;;;5.40;79.10;;;;;;5022592;28;20510;-85
2022/03/31 01:48:13;;;;;;;2.60;1.25;;;5.40;79.10;;;;;;4992271;28;20054;-84
2022/03/31 01:50:43;;;;;;;2.63;1.55;;;5.40;79.20;;;;;;5003349;28;20049;-85
2022/03/31 01:53:18;;;;;;;2.70;1.30;;;5.40;79.20;;;;;;5006600;28;20046;-84
2022/03/31 01:55:47;;;;;;;4.07;1.83;;;5.40;79.30;;;;;;5018321;28;20100;-84
2022/03/31 01:58:14;;;;;;;2.92;1.55;;;5.40;79.70;;;;;;4995510;28;20057;-84
2022/03/31 02:00:42;;;;;;;3.22;1.40;;;5.30;79.60;;;;;;4999780;28;20054;-85
2022/03/31 02:03:09;;;;;;;2.33;1.23;;;5.30;79.70;;;;;;4996585;28;20045;-83
2022/03/31 02:05:37;;;;;;;2.08;0.73;;;5.30;79.60;;;;;;5008222;28;20053;-85
2022/03/31 02:08:04;;;;;;;2.60;1.33;;;5.20;79.60;;;;;;5006311;28;20145;-84
2022/03/31 02:10:35;;;;;;;2.40;1.20;;;5.10;79.80;;;;;;4987087;28;20077;-84
2022/03/31 02:13:03;;;;;;;2.22;1.05;;;5.10;80.10;;;;;;4989511;28;20058;-84
2022/03/31 02:15:30;;;;;;;3.83;1.35;;;5.00;80.10;;;;;;4994593;28;20109;-85
2022/03/31 02:17:57;;;;;;;1.73;1.13;;;5.10;80.30;;;;;;4995747;28;20056;-84
2022/03/31 02:20:27;;;;;;;2.22;0.90;;;5.00;80.50;;;;;;4998498;28;20046;-84
2022/03/31 02:22:55;;;;;;;3.00;1.00;;;4.90;80.70;;;;;;4992434;28;20060;-84
2022/03/31 02:25:23;;;;;;;2.08;0.90;;;4.90;80.70;;;;;;4997101;28;20129;-84
2022/03/31 02:27:52;;;;;;;2.58;1.10;;;4.90;80.70;;;;;;4999713;28;20050;-85
2022/03/31 02:30:21;;;;;;;1.52;0.70;;;4.80;80.70;;;;;;4993713;28;20064;-84
2022/03/31 02:32:51;;;;;;;2.25;0.70;;;4.80;80.80;;;;;;4994092;28;20154;-84
2022/03/31 02:35:18;;;;;;;2.25;1.30;;;4.80;80.80;;;;;;4993695;28;20096;-84
2022/03/31 02:37:49;;;;;;;2.60;1.00;;;4.70;81.00;;;;;;4971524;28;20144;-84
2022/03/31 02:40:21;;;;;;;1.52;0.55;;;4.70;81.00;;;;;;4978447;28;20127;-84
2022/03/31 02:42:49;;;;;;;2.47;0.70;;;4.70;81.00;;;;;;4986582;28;20042;-85
2022/03/31 02:45:19;;;;;;;1.08;0.57;;;4.70;81.10;;;;;;4998882;28;20057;-84
2022/03/31 02:47:47;;;;;;;1.00;0.40;;;4.60;81.10;;;;;;4991107;28;20089;-84
2022/03/31 02:50:19;;;;;;;1.27;0.60;;;4.60;81.10;;;;;;4993150;28;20065;-84
2022/03/31 02:55:32;;;;;;;2.35;0.63;;;4.60;81.10;;;;;;5008749;28;20042;-84
2022/03/31 02:58:04;;;;;;;1.10;0.55;;;4.60;81.10;;;;;;4992606;28;20100;-85
2022/03/31 03:00:35;;;;;;;1.48;0.60;;;4.60;81.40;;;;;;4993425;28;20502;-86
2022/03/31 03:03:03;;;;;;;1.23;0.55;;;4.50;81.30;;;;;;4993516;28;20093;-86
2022/03/31 03:05:32;;;;;;;0.80;0.50;;;4.50;81.40;;;;;;4992401;28;20054;-86
2022/03/31 03:07:59;;;;;;;1.45;0.50;;;4.50;81.40;;;;;;4967282;28;20061;-86
2022/03/31 03:10:32;;;;;;;1.48;0.50;;;4.50;81.50;;;;;;4993193;28;20082;-86
2022/03/31 03:12:59;;;;;;;1.02;0.50;;;4.50;81.40;;;;;;4994995;28;20057;-86
2022/03/31 03:15:30;;;;;;;1.30;0.60;;;4.40;81.40;;;;;;5016908;28;20045;-86
2022/03/31 03:17:57;;;;;;;0.90;0.50;;;4.40;81.60;;;;;;5009543;28;20042;-87
2022/03/31 03:20:25;;;;;;;0.77;0.30;;;4.40;81.80;;;;;;4994305;28;20041;-87
2022/03/31 03:22:53;;;;;;;0.73;0.40;;;4.30;81.70;;;;;;4982617;28;20054;-87
2022/03/31 03:25:22;;;;;;;0.68;0.30;;;4.30;81.60;;;;;;4986097;28;20054;-87
2022/03/31 03:27:50;;;;;;;1.00;0.50;;;4.30;81.70;;;;;;4985287;28;20061;-87
2022/03/31 03:30:18;;;;;;;0.82;0.40;;;4.30;81.70;;;;;;5007019;28;20445;-87
2022/03/31 03:32:46;;;;;;;1.00;0.47;;;4.30;81.70;;;;;;5023568;28;20074;-87
2022/03/31 03:35:14;;;;;;;0.80;0.30;;;4.30;81.60;;;;;;4991942;28;20498;-87
2022/03/31 03:37:43;;;;;;;0.70;0.30;;;4.40;81.60;;;;;;5005538;28;20057;-88
2022/03/31 03:40:13;;;;;;;1.15;0.50;;;4.40;81.60;;;;;;5010089;28;20049;-87
2022/03/31 03:42:41;;;;;;;0.93;0.40;;;4.40;81.80;;;;;;4996013;28;20077;-87
2022/03/31 03:45:11;;;;;;;0.60;0.30;;;4.40;81.90;;;;;;4999899;28;20050;-86
2022/03/31 03:47:38;;;;;;;1.40;0.30;;;4.40;81.80;;;;;;4994074;28;20568;-86
2022/03/31 03:50:09;;;;;;;0.98;0.30;;;4.40;81.80;;;;;;5013756;28;20493;-86
2022/03/31 03:52:36;;;;;;;0.60;0.30;;;4.30;81.80;;;;;;4984949;28;20045;-85
2022/03/31 03:55:08;;;;;;;0.93;0.40;;;4.30;82.10;;;;;;4995597;28;20188;-86
2022/03/31 03:57:35;;;;;;;0.70;0.20;;;4.20;82.10;;;;;;4994809;28;20494;-86
2022/03/31 04:00:03;;;;;;;0.55;0.30;;;4.20;82.20;;;;;;4995673;28;20054;-86
2022/03/31 04:02:30;;;;;;;0.45;0.20;;;4.20;82.20;;;;;;5008385;28;20054;-86
2022/03/31 04:04:58;;;;;;;1.17;0.50;;;4.20;82.20;;;;;;4984986;28;20045;-86
2022/03/31 04:07:25;;;;;;;0.80;0.22;;;4.20;82.20;;;;;;5001195;28;20065;-86
2022/03/31 04:09:52;;;;;;;1.58;0.40;;;4.20;82.20;;;;;;4990625;28;20064;-86
2022/03/31 04:12:19;;;;;;;1.15;0.40;;;4.20;82.50;;;;;;4976797;28;20173;-86
2022/03/31 04:14:46;;;;;;;0.90;0.30;;;4.10;82.40;;;;;;4959156;28;20050;-86
2022/03/31 04:17:16;;;;;;;1.70;0.50;;;4.00;82.50;;;;;;4966234;28;20190;-86
2022/03/31 04:19:43;;;;;;;1.13;0.40;;;4.00;82.60;;;;;;4979898;28;20050;-86
2022/03/31 04:22:11;;;;;;;1.40;0.40;;;4.00;82.80;;;;;;4993545;28;20137;-86
2022/03/31 04:24:39;;;;;;;1.13;0.55;;;4.00;82.90;;;;;;4979853;28;20058;-87
2022/03/31 04:27:06;;;;;;;1.15;0.70;;;3.90;82.90;;;;;;4999141;28;20688;-86
2022/03/31 04:29:34;;;;;;;1.15;0.50;;;3.90;83.10;;;;;;4991656;28;20058;-85
2022/03/31 04:32:01;;;;;;;1.17;0.40;;;3.80;83.20;;;;;;4965903;28;20104;-87
2022/03/31 04:34:28;;;;;;;0.50;0.30;;;3.80;83.40;;;;;;4982409;28;20048;-86
2022/03/31 04:36:58;;;;;;;0.70;0.40;;;3.80;83.30;;;;;;4962658;28;20046;-85
2022/03/31 04:39:28;;;;;;;0.88;0.35;;;3.80;83.20;;;;;;4974655;28;20087;-85
2022/03/31 04:41:55;;;;;;;1.00;0.40;;;3.90;83.20;;;;;;4961540;28;20058;-87
2022/03/31 04:44:22;;;;;;;0.60;0.30;;;3.90;83.20;;;;;;4966876;28;20070;-85
2022/03/31 04:46:50;;;;;;;0.68;0.30;;;3.90;83.20;;;;;;4972755;28;20050;-86
2022/03/31 04:49:17;;;;;;;0.52;0.30;;;3.90;83.40;;;;;;4967962;28;20042;-86
2022/03/31 04:51:44;;;;;;;0.40;0.30;;;3.90;83.30;;;;;;4969462;28;20122;-87
2022/03/31 04:54:15;;;;;;;0.85;0.30;;;3.90;83.20;;;;;;4965466;28;20447;-85
2022/03/31 04:56:43;;;;;;;0.28;0.20;;;3.90;83.30;;;;;;4974678;28;21554;-86
2022/03/31 04:59:19;;;;;;;0.70;0.30;;;3.80;83.10;;;;;;4975745;28;20111;-87
2022/03/31 05:01:46;;;;;;;0.95;0.30;;;3.80;83.40;;;;;;4961009;28;20051;-86
2022/03/31 05:04:16;;;;;;;0.73;0.20;;;3.80;83.40;;;;;;4976375;28;20070;-86
2022/03/31 05:06:44;;;;;;;0.63;0.30;;;3.80;83.30;;;;;;4973374;28;20518;-86
2022/03/31 05:09:11;;;;;;;0.60;0.20;;;3.80;83.40;;;;;;4968241;28;20050;-86
2022/03/31 05:11:39;;;;;;;0.80;0.30;;;3.80;83.40;;;;;;4990916;28;20050;-87
2022/03/31 05:14:06;;;;;;;0.80;0.40;;;3.70;84.10;;;;;;4985815;28;20055;-86
2022/03/31 05:16:33;;;;;;;0.85;0.50;;;3.80;83.50;;;;;;4977046;28;20173;-86
2022/03/31 05:19:03;;;;;;;0.90;0.40;;;3.80;83.60;;;;;;5002464;28;20046;-86
2022/03/31 05:21:30;;;;;;;0.70;0.30;;;3.80;83.50;;;;;;5005286;28;20049;-86
2022/03/31 05:23:58;;;;;;;1.02;0.40;;;3.80;83.50;;;;;;5001921;28;20058;-86
2022/03/31 05:26:27;;;;;;;1.52;0.70;;;3.80;83.80;;;;;;4989356;28;20136;-86
2022/03/31 05:28:58;;;;;;;1.38;0.52;;;3.80;83.90;;;;;;4995083;28;20049;-86
2022/03/31 05:31:26;;;;;;;1.08;0.40;;;3.70;83.90;;;;;;4980369;28;20046;-87
2022/03/31 05:33:53;;;;;;;1.20;0.50;;;3.70;83.80;;;;;;5002590;28;20046;-86
2022/03/31 05:36:20;;;;;;;1.08;0.43;;;3.60;83.90;;;;;;5004930;28;20506;-86
2022/03/31 05:38:48;;;;;;;0.77;0.40;;;3.60;83.90;;;;;;5023629;28;20513;-86
2022/03/31 05:41:21;;;;;;;0.68;0.35;;;3.60;84.00;;;;;;4985961;28;20136;-87
2022/03/31 05:43:51;;;;;;;1.02;0.35;;;3.50;84.20;;;;;;5002988;28;20054;-86
2022/03/31 05:46:22;;;;;;;1.08;0.38;;;3.50;84.20;;;;;;5003931;28;20048;-87
2022/03/31 05:49:10;;;;;;;1.40;0.70;;;3.50;84.20;;;;;;5002195;28;20051;-86
2022/03/31 05:51:39;;;;;;;0.73;0.40;;;3.40;84.40;;;;;;4985818;28;20050;-87
2022/03/31 05:54:21;;;;;;;1.80;0.50;;;3.40;84.40;;;;;;4994968;28;20137;-87
2022/03/31 05:56:54;;;;;;;0.80;0.30;;;3.40;84.70;;;;;;5001594;28;20054;-87
2022/03/31 05:59:24;;;;;;;0.90;0.40;;;3.30;84.60;;;;;;4993087;28;20160;-88
2022/03/31 06:01:51;;;;;;;0.93;0.40;;;3.40;84.80;;;;;;4982130;28;20049;-88
2022/03/31 06:04:22;;;;;;;1.05;0.50;;;3.30;84.70;;;;;;4995574;28;20089;-89
2022/03/31 06:07:06;;;;;;;1.05;0.50;;;3.30;84.90;;;;;;4991029;28;21449;-90
2022/03/31 06:09:33;;;;;;;1.20;0.50;;;3.30;84.80;;;;;;4988653;28;20100;-89
2022/03/31 06:12:01;;;;;;;0.65;0.38;;;3.20;84.80;;;;;;4996977;28;20058;-90
2022/03/31 06:14:30;;;;;;;0.93;0.30;;;3.10;84.90;;;;;;5001323;28;20070;-90
2022/03/31 06:16:58;;;;;;;0.53;0.30;;;3.00;85.00;;;;;;4995883;28;20050;-91
2022/03/31 06:19:25;;;;;;;1.05;0.40;;;3.00;85.00;;;;;;5005558;28;20070;-91
2022/03/31 06:21:52;;;;;;;0.52;0.25;;;3.00;85.10;;;;;;4996170;28;20120;-91
2022/03/31 06:24:22;;;;;;;0.55;0.30;;;3.00;85.10;;;;;;4994092;28;20043;-90
2022/03/31 06:26:49;;;;;;;0.80;0.30;;;3.00;85.20;;;;;;5012270;28;20158;-90
2022/03/31 06:29:17;;;;;;;0.43;0.20;;;3.00;85.30;;;;;;5010768;28;20052;-91
2022/03/31 06:31:44;;;;;;;0.80;0.30;;;3.00;85.30;;;;;;4995968;28;20035;-90
2022/03/31 06:34:12;;;;;;;0.45;0.25;;;2.90;85.50;;;;;;5017134;28;20113;-90
2022/03/31 06:36:39;;;;;;;0.60;0.20;;;2.90;85.60;;;;;;5044535;28;20051;-90
2022/03/31 06:39:06;;;;;;;1.50;0.40;;;3.00;85.60;;;;;;4979417;28;20056;-90
2022/03/31 06:41:34;;;;;;;0.53;0.20;;;3.00;85.70;;;;;;4989975;28;20050;-90
2022/03/31 06:44:02;;;;;;;0.50;0.30;;;3.00;85.70;;;;;;5008071;28;20137;-90
2022/03/31 06:46:38;;;;;;;0.40;0.20;;;2.90;85.60;;;;;;4993121;28;20157;-91
2022/03/31 06:49:06;;;;;;;0.50;0.27;;;2.90;85.70;;;;;;4994700;28;20074;-91
2022/03/31 06:51:33;;;;;;;0.60;0.30;;;3.00;85.90;;;;;;5004699;28;20073;-90
2022/03/31 06:54:00;;;;;;;0.80;0.30;;;3.00;85.90;;;;;;4995803;28;20073;-90
2022/03/31 06:56:31;;;;;;;0.50;0.20;;;3.00;85.80;;;;;;4986898;28;20109;-90
2022/03/31 06:58:59;;;;;;;0.52;0.22;;;3.10;85.80;;;;;;5008148;28;20104;-90
2022/03/31 07:01:26;;;;;;;0.63;0.30;;;3.10;85.70;;;;;;4981030;28;20046;-88
2022/03/31 07:03:54;;;;;;;0.43;0.20;;;3.10;85.70;;;;;;4982472;28;20051;-89
2022/03/31 07:06:22;;;;;;;0.50;0.20;;;3.20;85.60;;;;;;4992172;28;20042;-89
2022/03/31 07:08:50;;;;;;;0.82;0.40;;;3.20;85.60;;;;;;4999809;28;20569;-88
2022/03/31 07:11:20;;;;;;;0.70;0.30;;;3.20;85.60;;;;;;4996642;28;20042;-90
2022/03/31 07:13:49;;;;;;;0.50;0.30;;;3.30;85.70;;;;;;4993690;28;20141;-90
2022/03/31 07:16:17;;;;;;;0.65;0.32;;;3.30;85.90;;;;;;4995116;28;20590;-86
2022/03/31 07:18:47;;;;;;;0.65;0.30;;;3.30;85.90;;;;;;4993259;28;20097;-87
2022/03/31 07:21:15;;;;;;;0.70;0.30;;;3.30;85.80;;;;;;4979438;28;20405;-86
2022/03/31 07:23:48;;;;;;;0.77;0.30;;;3.30;85.70;;;;;;4980809;28;20129;-84
2022/03/31 07:26:23;;;;;;;0.50;0.30;;;3.30;85.70;;;;;;5016786;28;20096;-83
2022/03/31 07:28:51;;;;;;;1.33;0.50;;;3.30;85.80;;;;;;5003201;28;20074;-84
2022/03/31 07:31:23;;;;;;;0.88;0.40;;;3.40;85.80;;;;;;4986967;28;20070;-84
2022/03/31 07:33:51;;;;;;;1.40;0.32;;;3.40;85.80;;;;;;5009143;28;20080;-84
2022/03/31 07:36:19;;;;;;;1.35;0.60;;;3.40;85.70;;;;;;4981514;28;20046;-84
2022/03/31 07:38:46;;;;;;;1.52;0.70;;;3.40;85.90;;;;;;4981363;28;20510;-85
2022/03/31 07:41:16;;;;;;;1.27;0.50;;;3.40;86.10;;;;;;4990130;28;20050;-84
2022/03/31 07:43:44;;;;;;;1.30;0.67;;;3.40;86.10;;;;;;5002457;28;20070;-85
2022/03/31 07:46:12;;;;;;;1.40;0.73;;;3.40;86.00;;;;;;5002784;28;20169;-85
2022/03/31 07:48:39;;;;;;;1.43;0.63;;;3.40;86.00;;;;;;4995307;28;20057;-84
2022/03/31 07:51:06;;;;;;;2.90;0.80;;;3.40;86.60;;;;;;5003046;28;20112;-82
2022/03/31 07:53:34;;;;;;;1.35;0.57;;;3.50;86.10;;;;;;4971744;28;20041;-81
2022/03/31 07:56:03;;;;;;;3.35;1.20;;;3.60;86.00;;;;;;4991899;28;20328;-82
2022/03/31 07:58:30;;;;;;;2.67;1.13;;;3.70;85.80;;;;;;4988860;28;20042;-82
2022/03/31 08:00:58;;;;;;;2.22;1.00;;;3.70;85.70;;;;;;4994499;28;20045;-82
2022/03/31 08:03:25;;;;;;;1.98;0.80;;;3.70;85.60;;;;;;4993174;28;20046;-82
2022/03/31 08:05:52;;;;;;;2.20;0.88;;;3.70;85.80;;;;;;4984730;28;20061;-83
2022/03/31 08:08:20;;;;;;;1.48;0.70;;;3.70;85.80;;;;;;4984926;28;20049;-82
2022/03/31 08:10:51;;;;;;;1.70;0.70;;;3.70;85.90;;;;;;5027048;28;20486;-79
2022/03/31 08:13:26;;;;;;;1.45;0.68;;;3.70;86.60;;;;;;4991251;28;20053;-79
2022/03/31 08:15:54;;;;;;;1.30;0.50;;;3.70;85.90;;;;;;4982944;28;20069;-80
2022/03/31 08:18:27;;;;;;;1.10;0.50;;;3.70;85.90;;;;;;5009200;28;20056;-81
2022/03/31 08:20:58;;;;;;;1.70;0.80;;;3.70;86.00;;;;;;4994451;28;20057;-88
2022/03/31 08:23:26;;;;;;;1.27;0.50;;;3.70;86.20;;;;;;4984480;28;20050;-82
2022/03/31 08:25:54;;;;;;;0.95;0.60;;;3.70;86.10;;;;;;4993094;28;20060;-81
2022/03/31 08:28:22;;;;;;;0.90;0.43;;;3.80;86.10;;;;;;4988191;28;20050;-86
2022/03/31 08:30:49;;;;;;;1.30;0.70;;;3.80;86.10;;;;;;5009250;28;20498;-88
2022/03/31 08:33:19;;;;;;;0.70;0.40;;;3.80;86.00;;;;;;4983836;28;20042;-83
2022/03/31 08:35:52;;;;;;;1.27;0.68;;;3.90;86.00;;;;;;4991935;28;20104;-86
2022/03/31 08:38:20;;;;;;;1.08;0.50;;;3.90;85.90;;;;;;4993742;28;20065;-81
2022/03/31 08:40:56;;;;;;;1.20;0.40;;;4.00;85.90;;;;;;5010474;28;20046;-81
2022/03/31 08:43:26;;;;;;;1.00;0.57;;;3.90;85.80;;;;;;4988896;28;20395;-81
2022/03/31 08:45:55;;;;;;;1.58;0.40;;;3.90;85.90;;;;;;4991353;28;20064;-82
2022/03/31 08:48:26;;;;;;;1.20;0.40;;;4.00;85.90;;;;;;5025267;28;20046;-82
2022/03/31 08:50:53;;;;;;;1.08;0.40;;;4.00;86.00;;;;;;4986933;28;20441;-83
2022/03/31 08:53:21;;;;;;;0.90;0.40;;;4.00;85.90;;;;;;4987748;28;20053;-83
2022/03/31 08:55:50;;;;;;;0.88;0.50;;;4.00;85.90;;;;;;4985946;28;20038;-84
2022/03/31 08:58:17;;;;;;;1.02;0.40;;;4.00;85.90;;;;;;5008684;28;20050;-84
2022/03/31 09:00:47;;;;;;;1.88;0.40;;;4.00;85.90;;;;;;4985681;28;20054;-83
2022/03/31 09:03:16;;;;;;;1.08;0.50;;;4.00;85.90;;;;;;5003207;28;20056;-83
2022/03/31 09:05:52;;;;;;;0.75;0.38;;;4.00;85.90;;;;;;4999189;28;20085;-82
2022/03/31 09:08:23;;;;;;;0.82;0.40;;;3.90;85.90;;;;;;5006372;28;20060;-83
2022/03/31 09:10:53;;;;;;;0.90;0.50;;;3.90;86.00;;;;;;5020643;28;20057;-82
2022/03/31 09:13:26;;;;;;;0.90;0.50;;;4.00;86.00;;;;;;4988349;28;20479;-82
2022/03/31 09:16:02;;;;;;;0.82;0.40;;;4.00;85.90;;;;;;4990551;28;20057;-79
2022/03/31 09:18:32;;;;;;;0.73;0.40;;;4.00;85.90;;;;;;4988422;28;20054;-80
2022/03/31 09:21:03;;;;;;;0.93;0.40;;;4.10;85.90;;;;;;4996577;28;20061;-80
2022/03/31 09:23:52;;;;;;;0.80;0.40;;;4.10;85.80;;;;;;4993820;28;20046;-81
2022/03/31 09:26:19;;;;;;;0.80;0.40;;;4.10;85.80;;;;;;5024340;28;20517;-82
2022/03/31 09:28:50;;;;;;;0.82;0.40;;;4.00;85.70;;;;;;4993131;28;20121;-82
2022/03/31 09:31:25;;;;;;;1.23;0.40;;;4.10;85.70;;;;;;4990010;28;20054;-81
2022/03/31 09:33:57;;;;;;;2.47;0.75;;;4.10;85.70;;;;;;4993423;28;20533;-80
2022/03/31 09:36:25;;;;;;;1.37;0.50;;;4.00;85.70;;;;;;4977072;28;20069;-81
2022/03/31 09:38:59;;;;;;;2.47;0.60;;;4.00;86.00;;;;;;4988766;28;20053;-81
2022/03/31 09:41:31;;;;;;;1.00;0.40;;;3.90;86.10;;;;;;4993713;28;20056;-80
2022/03/31 09:44:04;;;;;;;0.93;0.40;;;3.90;86.00;;;;;;5024950;28;20050;-80
2022/03/31 09:46:38;;;;;;;2.10;0.80;;;3.90;86.00;;;;;;4994739;28;20117;-82
2022/03/31 09:49:12;;;;;;;2.00;0.80;;;4.00;86.10;;;;;;4992748;28;20058;-82
2022/03/31 09:51:41;;;;;;;1.77;0.90;;;3.90;86.10;;;;;;5002251;28;20053;-82
2022/03/31 09:54:09;;;;;;;2.08;0.82;;;3.80;86.20;;;;;;4994347;28;20038;-79
2022/03/31 09:56:39;;;;;;;1.17;0.70;;;3.80;86.40;;;;;;4977454;28;20042;-81
2022/03/31 09:59:13;;;;;;;1.98;0.82;;;3.70;86.30;;;;;;5006530;28;20137;-82
2022/03/31 10:01:51;;;;;;;1.10;0.50;;;3.70;86.50;;;;;;4993425;28;20060;-83
2022/03/31 10:04:20;;;;;;;1.58;0.80;;;3.60;86.60;;;;;;4993098;28;20072;-83
2022/03/31 10:06:56;;;;;;;2.20;0.80;;;3.60;86.80;;;;;;5001705;28;20174;-86
2022/03/31 10:09:24;;;;;;;1.00;0.55;;;3.60;86.90;;;;;;4993938;28;20061;-86
2022/03/31 10:12:41;;;;;;;1.65;0.73;;;3.70;86.90;;;;;;4992637;28;20046;-83
2022/03/31 10:15:14;;;;;;;1.65;0.73;;;3.70;86.70;;;;;;4987284;28;20054;-88
2022/03/31 10:17:43;;;;;;;1.80;0.80;;;3.80;86.70;;;;;;4993970;28;20583;-86
2022/03/31 10:20:13;;;;;;;1.73;0.90;;;3.80;86.70;;;;;;4979509;28;20050;-86
2022/03/31 10:25:42;;;;;;;1.73;0.80;;;3.80;86.70;;;;;;4999473;28;20409;-84
2022/03/31 10:28:16;;;;;;;2.27;0.97;;;3.70;86.90;;;;;;4993239;28;20060;-82
2022/03/31 10:31:05;;;;;;;1.57;0.80;;;3.60;86.90;;;;;;4993229;28;20073;-82
2022/03/31 10:33:42;;;;;;;1.08;0.70;;;3.70;87.00;;;;;;4994836;28;20129;-81
2022/03/31 10:36:12;;;;;;;1.20;0.70;;;3.70;87.00;;;;;;4994532;28;20116;-81
2022/03/31 10:39:02;;;;;;;2.83;0.80;;;3.70;86.90;;;;;;4976727;28;20133;-79
2022/03/31 10:41:38;;;;;;;1.50;0.90;;;3.80;86.80;;;;;;4985223;28;20034;-81
2022/03/31 10:44:21;;;;;;;2.30;0.83;;;3.80;87.00;;;;;;4991601;28;20057;-80
2022/03/31 10:47:06;;;;;;;1.80;0.87;;;3.80;87.00;;;;;;4983757;28;20046;-88
2022/03/31 10:49:54;;;;;;;0.90;0.60;;;3.80;86.90;;;;;;4995822;28;20065;-80
2022/03/31 10:52:23;;;;;;;2.03;0.80;;;3.80;86.90;;;;;;4998865;28;20041;-79
2022/03/31 10:55:18;;;;;;;1.52;0.63;;;3.80;87.00;;;;;;5010047;28;20049;-81
2022/03/31 10:57:46;;;;;;;1.70;0.80;;;3.70;87.00;;;;;;4986872;28;20052;-80
2022/03/31 11:00:51;;;;;;;1.63;1.00;;;3.70;87.30;;;;;;4994125;28;20046;-84
2022/03/31 11:03:19;;;;;;;2.05;0.80;;;3.70;87.50;;;;;;4993225;28;20057;-79
2022/03/31 11:05:48;;;;;;;1.65;0.90;;;3.70;87.60;;;;;;4976532;28;20061;-87
2022/03/31 11:08:19;;;;;;;2.35;0.80;;;3.70;87.50;;;;;;4992933;28;20058;-79
2022/03/31 11:10:57;;;;;;;2.13;0.80;;;3.70;87.50;;;;;;4993244;28;20046;-84
2022/03/31 11:13:34;;;;;;;2.47;0.70;;;3.80;87.50;;;;;;4993462;28;20481;-88
2022/03/31 11:16:14;;;;;;;1.73;0.80;;;3.80;87.40;;;;;;4995665;28;20049;-82
2022/03/31 11:18:56;;;;;;;1.08;0.57;;;3.90;87.40;;;;;;4994028;28;20137;-85
2022/03/31 11:21:24;;;;;;;1.50;0.63;;;3.90;87.20;;;;;;5007738;28;20137;-85
2022/03/31 11:23:53;;;;;;;1.35;0.65;;;4.00;87.20;;;;;;4977286;28;20046;-88
2022/03/31 11:26:32;;;;;;;1.10;0.52;;;4.00;87.20;;;;;;4994302;28;20098;-85
2022/03/31 11:29:00;;;;;;;0.80;0.40;;;4.00;87.20;;;;;;4993903;28;20042;-87
2022/03/31 11:31:28;;;;;;;1.15;0.47;;;4.00;87.20;;;;;;4994044;28;20042;-86
2022/03/31 11:33:58;;;;;;;0.95;0.57;;;4.00;87.40;;;;;;4994118;28;20096;-89
2022/03/31 11:36:37;;;;;;;1.33;0.52;;;4.00;87.30;;;;;;4979421;28;20049;-90
2022/03/31 11:39:10;;;;;;;;;;;4.10;87.20;;;;;;4993987;28;20048;-89
2022/03/31 11:41:43;;;;;;;0.82;0.45;;;4.10;87.10;;;;;;4978187;28;19971;-89
2022/03/31 11:45:03;;;;;;;1.15;0.55;;;4.10;87.10;;;;;;4986788;28;20062;-87
2022/03/31 11:47:33;;;;;;;1.42;0.70;;;4.10;87.20;;;;;;4992033;28;20061;-88
2022/03/31 11:50:01;;;;;;;1.35;0.50;;;4.00;87.20;;;;;;4974353;28;20391;-89
2022/03/31 11:52:32;;;;;;;1.38;0.68;;;4.00;87.30;;;;;;5006825;28;20087;-86
2022/03/31 11:55:02;;;;;;;1.45;0.68;;;4.00;87.40;;;;;;4992429;28;20088;-88
2022/03/31 11:57:29;;;;;;;1.42;0.60;;;4.00;87.50;;;;;;4992911;28;20494;-89
2022/03/31 12:00:08;;;;;;;1.08;0.40;;;3.90;87.70;;;;;;4994576;28;20042;-86
2022/03/31 12:02:35;;;;;;;1.27;0.60;;;3.90;87.80;;;;;;4993538;28;20050;-88
2022/03/31 12:05:03;;;;;;;0.85;0.52;;;3.80;88.40;;;;;;4992393;28;20143;-87
2022/03/31 12:07:31;;;;;;;1.33;0.65;;;3.80;87.90;;;;;;4993755;28;20062;-87
2022/03/31 12:13:23;;;;;;;0.90;0.40;;;3.80;87.90;;;;;;4994441;28;20050;-88
2022/03/31 12:16:05;;;;;;;0.80;0.30;;;3.90;87.90;;;;;;4994044;28;20126;-88
2022/03/31 12:18:34;;;;;;;0.55;0.20;;;3.90;87.80;;;;;;5020400;28;20041;-89
2022/03/31 12:21:06;;;;;;;0.65;0.40;;;3.90;87.80;;;;;;5002157;28;20045;-90
2022/03/31 12:23:43;;;;;;;0.82;0.35;;;3.90;87.80;;;;;;4973768;28;20047;-89
2022/03/31 12:26:31;;;;;;;0.63;0.30;;;3.90;87.80;;;;;;5023728;28;20498;-88
2022/03/31 12:29:01;;;;;;;0.65;0.30;;;4.00;87.70;;;;;;4976012;28;20053;-88
2022/03/31 12:31:31;;;;;;;0.80;0.30;;;3.90;87.70;;;;;;4986578;28;20425;-88
2022/03/31 12:33:58;;;;;;;0.43;0.38;;;3.90;87.80;;;;;;5011227;28;20050;-87
2022/03/31 12:36:32;;;;;;;0.50;0.30;;;3.90;87.90;;;;;;5003593;28;20824;-87
2022/03/31 12:39:03;;;;;;;0.73;0.40;;;3.90;87.80;;;;;;5011217;28;20041;-88
2022/03/31 12:41:36;;;;;;;1.25;0.68;;;3.90;87.90;;;;;;5003569;28;20058;-88
2022/03/31 12:44:11;;;;;;;0.60;0.30;;;3.80;88.00;;;;;;4992118;28;20058;-82
2022/03/31 12:46:58;;;;;;;0.90;0.40;;;3.80;88.00;;;;;;4991950;28;20062;-83
2022/03/31 12:49:32;;;;;;;0.90;0.50;;;3.80;88.10;;;;;;5003339;28;20050;-82
2022/03/31 12:52:09;;;;;;;1.40;0.50;;;3.80;88.30;;;;;;4998286;28;20042;-83
2022/03/31 12:54:40;;;;;;;1.60;1.00;;;3.80;88.30;;;;;;5003734;28;20077;-82
2022/03/31 12:57:23;;;;;;;0.87;0.50;;;3.80;88.40;;;;;;5027681;28;20088;-84
2022/03/31 13:00:16;;;;;;;1.10;0.60;;;3.80;88.40;;;;;;5013804;28;20906;-84
2022/03/31 13:02:44;;;;;;;1.10;0.50;;;3.90;88.10;;;;;;5012400;28;20137;-83
2022/03/31 13:05:21;;;;;;;1.13;0.50;;;3.90;88.10;;;;;;5002848;28;20057;-82
2022/03/31 13:07:51;;;;;;;1.13;0.60;;;4.00;88.10;;;;;;4987335;28;20129;-83
2022/03/31 13:10:23;;;;;;;1.63;0.73;;;4.00;88.00;;;;;;5027656;28;20050;-82
2022/03/31 13:12:52;;;;;;;0.82;0.40;;;4.00;88.10;;;;;;4998387;28;20054;-84
2022/03/31 13:15:21;;;;;;;0.60;0.40;;;3.90;88.20;;;;;;4984573;28;20128;-83
2022/03/31 13:17:51;;;;;;;0.80;0.37;;;3.90;88.40;;;;;;4997459;28;20049;-82
2022/03/31 13:20:21;;;;;;;0.88;0.47;;;3.90;88.30;;;;;;5006740;28;20034;-82
2022/03/31 13:22:50;;;;;;;1.57;0.50;;;3.90;88.30;;;;;;5008618;28;20573;-84
2022/03/31 13:25:20;;;;;;;1.13;0.50;;;3.90;88.50;;;;;;4999812;28;20498;-85